Time;durP1;ratioP1;P1;durP2;ratioP2;P2;SDS_P1;SDS_P2;PMS_P1;PMS_P2;Temp;Humidity;BMP_temperature;BMP_pressure;BME280_temperature;BME280_humidity;BME280_pressure;Samples;Min_cycle;Max_cycle;Signal;HPM_P1;HPM_P2
2023/12/18 00:01:00;;;;;;;9.30;5.30;;;;;;;10.06;64.99;100881.69;1772642;81;21290;-89
2023/12/18 00:04:11;;;;;;;6.25;4.78;;;;;;;9.97;65.10;100891.69;1773906;81;21902;-90
2023/12/18 00:07:18;;;;;;;8.23;5.37;;;;;;;10.16;64.72;100894.27;1773895;81;21302;-88
2023/12/18 00:10:24;;;;;;;7.25;5.47;;;;;;;9.98;64.74;100891.55;1774427;81;22203;-89
2023/12/18 00:13:31;;;;;;;8.45;5.80;;;;;;;9.87;65.14;100896.39;1774526;81;21853;-88
2023/12/18 00:16:36;;;;;;;7.83;6.05;;;;;;;9.84;65.01;100894.85;1774419;81;21271;-88
2023/12/18 00:19:45;;;;;;;7.55;5.75;;;;;;;9.88;65.10;100888.06;1770473;81;21284;-90
2023/12/18 00:22:50;;;;;;;8.63;6.00;;;;;;;10.02;64.73;100884.38;1760920;81;21848;-88
2023/12/18 00:29:56;;;;;;;11.00;6.78;;;;;;;9.78;65.78;100884.53;1857986;76;22178;-86
2023/12/18 00:33:02;;;;;;;11.48;8.23;;;;;;;9.58;66.44;100880.25;1750441;81;21305;-89
2023/12/18 00:36:11;;;;;;;11.35;7.97;;;;;;;9.69;66.17;100880.89;1735524;82;21343;-87
2023/12/18 00:39:18;;;;;;;13.05;8.58;;;;;;;9.82;65.84;100876.88;1750019;81;21302;-88
2023/12/18 00:42:24;;;;;;;10.08;7.47;;;;;;;9.76;66.20;100875.64;1736873;82;21841;-87
2023/12/18 00:45:31;;;;;;;12.20;7.50;;;;;;;9.61;66.66;100882.69;1751447;82;21275;-88
2023/12/18 00:48:37;;;;;;;12.88;8.88;;;;;;;9.64;66.83;100875.52;1737347;82;22205;-88
2023/12/18 00:51:44;;;;;;;9.35;7.40;;;;;;;9.71;66.82;100862.97;1751410;82;21295;-87
2023/12/18 00:54:51;;;;;;;10.60;7.45;;;;;;;9.56;67.07;100857.72;1737386;82;21284;-89
2023/12/18 00:57:58;;;;;;;11.08;7.87;;;;;;;9.52;67.56;100859.89;1751233;81;21295;-88
2023/12/18 01:01:03;;;;;;;12.73;8.50;;;;;;;9.55;67.49;100853.24;1737307;82;21288;-87
2023/12/18 01:04:09;;;;;;;14.83;9.73;;;;;;;9.56;67.46;100844.06;1750739;81;21329;-87
2023/12/18 01:07:16;;;;;;;13.88;9.40;;;;;;;9.68;67.05;100846.88;1737099;82;21886;-88
2023/12/18 01:10:22;;;;;;;11.68;8.48;;;;;;;9.53;67.23;100836.17;1751197;82;21267;-87
2023/12/18 01:13:28;;;;;;;15.95;11.38;;;;;;;9.35;67.90;100828.83;1737176;82;21276;-88
2023/12/18 01:16:33;;;;;;;15.65;10.72;;;;;;;9.77;66.88;100821.34;1748714;82;21275;-87
2023/12/18 01:19:39;;;;;;;16.55;10.88;;;;;;;9.87;66.38;100818.01;1748524;82;21319;-89
2023/12/18 01:22:47;;;;;;;11.65;8.53;;;;;;;10.00;65.72;100818.96;1748777;82;21323;-88
2023/12/18 01:25:54;;;;;;;12.43;8.80;;;;;;;9.65;66.72;100828.09;1751365;82;21263;-87
2023/12/18 01:29:00;;;;;;;15.38;9.78;;;;;;;10.04;66.18;100823.09;1716056;83;21877;-89
2023/12/18 01:32:06;;;;;;;14.78;10.25;;;;;;;10.32;64.83;100818.86;1772383;81;21291;-88
2023/12/18 01:35:19;;;;;;;14.47;9.10;;;;;;;9.81;66.42;100818.66;1772443;81;21296;-87
2023/12/18 01:38:26;;;;;;;14.87;9.53;;;;;;;9.66;67.07;100817.00;1772201;81;21284;-89
2023/12/18 01:41:33;;;;;;;13.90;9.88;;;;;;;9.77;66.93;100820.49;1771726;81;21268;-88
2023/12/18 01:44:38;;;;;;;13.50;9.95;;;;;;;9.70;67.14;100817.05;1771624;81;21268;-88
2023/12/18 01:47:47;;;;;;;18.00;10.80;;;;;;;9.97;66.44;100826.98;1771296;81;21786;-87
2023/12/18 01:50:46;;;;;;;13.88;9.80;;;;;;;10.01;65.89;100822.55;1771668;81;21319;-88
2023/12/18 01:53:56;;;;;;;18.42;12.18;;;;;;;9.87;66.35;100818.01;1771433;81;21292;-88
2023/12/18 01:57:02;;;;;;;18.23;12.30;;;;;;;10.06;65.67;100816.94;1771779;81;21252;-87
2023/12/18 02:00:13;;;;;;;16.27;10.37;;;;;;;9.95;66.58;100818.59;1771290;81;21300;-87
2023/12/18 02:03:19;;;;;;;17.95;12.35;;;;;;;9.77;66.65;100811.79;1771899;81;21300;-89
2023/12/18 02:06:24;;;;;;;17.35;12.23;;;;;;;9.50;67.62;100799.61;1771850;81;21271;-87
2023/12/18 02:09:31;;;;;;;19.30;12.90;;;;;;;9.99;66.71;100814.01;1771804;81;21276;-88
2023/12/18 02:12:38;;;;;;;20.35;12.07;;;;;;;9.80;66.81;100818.31;1771926;81;21264;-87
2023/12/18 02:15:47;;;;;;;17.52;12.07;;;;;;;10.18;65.53;100814.81;1771616;81;21312;-87
2023/12/18 02:18:54;;;;;;;20.97;13.05;;;;;;;10.27;65.40;100808.41;1771738;80;21174;-88
2023/12/18 02:21:56;;;;;;;18.17;11.95;;;;;;;10.11;65.77;100808.27;1771454;81;21826;-87
2023/12/18 02:24:48;;;;;;;16.15;10.43;;;;;;;9.96;66.63;100804.75;1771656;81;21276;-87
2023/12/18 02:27:54;;;;;;;15.58;10.88;;;;;;;10.01;66.10;100809.73;1771690;81;21327;-88
2023/12/18 02:31:00;;;;;;;17.32;11.65;;;;;;;10.17;65.85;100819.43;1778191;80;21271;-87
2023/12/18 02:34:33;;;;;;;17.40;11.00;;;;;;;10.12;65.71;100822.30;1751546;80;21161;-89
2023/12/18 02:37:40;;;;;;;17.62;12.15;;;;;;;10.09;65.93;100805.70;1785207;80;21173;-89
2023/12/18 02:40:47;;;;;;;17.05;12.37;;;;;;;10.18;65.72;100791.58;1783678;80;21295;-88
2023/12/18 02:43:54;;;;;;;17.60;12.30;;;;;;;10.21;65.22;100798.95;1783624;80;21295;-88
2023/12/18 02:47:01;;;;;;;19.32;13.00;;;;;;;10.33;65.21;100803.65;1784002;80;21637;-87
2023/12/18 02:50:07;;;;;;;20.95;11.93;;;;;;;10.37;64.80;100796.84;1784643;80;21436;-88
2023/12/18 02:53:14;;;;;;;20.32;13.13;;;;;;;10.36;64.95;100785.56;1784595;80;21346;-87
2023/12/18 02:56:23;;;;;;;19.65;13.08;;;;;;;10.37;65.03;100773.59;1783542;80;21331;-88
2023/12/18 02:59:29;;;;;;;24.47;14.98;;;;;;;10.66;64.67;100760.03;1783579;80;21303;-88
2023/12/18 03:02:37;;;;;;;22.75;14.55;;;;;;;10.52;64.89;100757.93;1784851;80;21217;-90
2023/12/18 03:05:45;;;;;;;24.37;16.05;;;;;;;10.42;65.10;100749.86;1783692;80;21280;-90
2023/12/18 03:08:52;;;;;;;20.62;13.03;;;;;;;10.31;65.09;100760.59;1784602;80;21915;-88
2023/12/18 03:11:57;;;;;;;20.48;13.62;;;;;;;10.46;65.21;100775.86;1783549;80;21304;-89
2023/12/18 03:15:06;;;;;;;18.25;12.30;;;;;;;10.44;65.29;100771.94;1783366;80;21983;-90
2023/12/18 03:18:06;;;;;;;19.70;13.20;;;;;;;10.71;64.29;100759.02;1785058;80;21852;-89
2023/12/18 03:21:18;;;;;;;25.48;15.13;;;;;;;10.73;64.19;100762.47;1784955;80;21260;-90
2023/12/18 03:24:25;;;;;;;21.60;12.90;;;;;;;10.74;64.24;100769.64;1785259;80;21300;-90
2023/12/18 03:27:30;;;;;;;18.55;12.85;;;;;;;10.78;64.53;100769.66;1785122;80;21752;-88
2023/12/18 03:30:37;;;;;;;21.97;14.10;;;;;;;11.03;63.69;100764.23;1784281;80;21303;-89
2023/12/18 03:33:45;;;;;;;20.32;13.50;;;;;;;10.81;64.50;100770.67;1781167;80;21311;-89
2023/12/18 03:36:52;;;;;;;18.05;12.33;;;;;;;10.90;64.08;100775.66;1781645;80;21276;-90
2023/12/18 03:40:07;;;;;;;19.62;12.95;;;;;;;11.17;62.88;100770.42;1781106;80;21232;-88
2023/12/18 03:43:14;;;;;;;18.52;12.10;;;;;;;11.09;62.92;100773.14;1782321;80;21310;-88
2023/12/18 03:46:21;;;;;;;16.10;11.35;;;;;;;11.12;63.09;100770.07;1781931;80;21292;-88
2023/12/18 03:49:30;;;;;;;14.68;10.93;;;;;;;11.19;62.33;100764.25;1780942;80;21303;-88
2023/12/18 03:52:37;;;;;;;16.87;11.35;;;;;;;11.19;62.22;100771.95;1780882;80;21378;-87
2023/12/18 03:55:44;;;;;;;15.93;11.95;;;;;;;10.77;63.54;100769.28;1780881;80;21272;-88
2023/12/18 03:58:51;;;;;;;17.60;11.33;;;;;;;10.37;64.73;100764.02;1780676;80;21331;-87
2023/12/18 04:01:58;;;;;;;15.90;10.68;;;;;;;10.44;64.86;100753.27;1780721;80;21856;-88
2023/12/18 04:05:04;;;;;;;16.48;10.23;;;;;;;10.74;63.96;100753.22;1781565;80;21181;-86
2023/12/18 04:08:14;;;;;;;15.37;11.40;;;;;;;10.60;64.14;100747.88;1780761;80;21298;-88
2023/12/18 04:11:24;;;;;;;16.23;10.65;;;;;;;10.46;64.71;100760.82;1781416;80;21549;-88
2023/12/18 04:14:30;;;;;;;15.30;10.98;;;;;;;10.34;65.18;100756.14;1780152;80;21304;-88
2023/12/18 04:17:37;;;;;;;17.07;11.43;;;;;;;10.67;64.05;100750.80;1781201;80;21323;-89
2023/12/18 04:20:44;;;;;;;13.70;10.20;;;;;;;10.54;63.85;100746.30;1781549;80;21291;-88
2023/12/18 04:23:51;;;;;;;12.90;9.25;;;;;;;10.41;64.62;100747.64;1780201;80;21342;-87
2023/12/18 04:26:57;;;;;;;12.63;9.60;;;;;;;10.89;63.21;100741.11;1780303;80;21315;-89
2023/12/18 04:30:07;;;;;;;13.98;9.53;;;;;;;11.05;63.07;100737.54;1780380;80;21303;-90
2023/12/18 04:33:14;;;;;;;13.53;9.38;;;;;;;11.10;62.35;100738.73;1774196;80;21319;-86
2023/12/18 04:36:21;;;;;;;13.68;8.83;;;;;;;11.05;62.25;100736.17;1771194;81;21290;-85
2023/12/18 04:39:28;;;;;;;13.48;9.35;;;;;;;11.15;62.13;100740.48;1769386;81;21288;-89
2023/12/18 04:42:35;;;;;;;17.50;8.18;;;;;;;11.50;60.86;100737.05;1770326;81;21829;-89
2023/12/18 04:45:41;;;;;;;13.80;9.55;;;;;;;10.75;63.23;100728.94;1771400;81;21705;-91
2023/12/18 04:48:49;;;;;;;13.65;7.90;;;;;;;11.08;62.37;100719.41;1770345;81;21315;-89
2023/12/18 04:51:55;;;;;;;12.07;7.80;;;;;;;11.02;62.59;100721.47;1762717;81;21303;-85
2023/12/18 04:55:04;;;;;;;9.73;6.78;;;;;;;10.89;63.07;100722.81;1771341;81;21845;-85
2023/12/18 04:58:10;;;;;;;12.60;7.90;;;;;;;11.06;62.73;100729.69;1770839;81;21304;-91
2023/12/18 05:01:17;;;;;;;14.00;7.80;;;;;;;10.96;62.99;100727.97;1771376;81;21820;-90
2023/12/18 05:04:24;;;;;;;10.08;7.03;;;;;;;10.74;63.58;100721.77;1761951;81;21825;-90
2023/12/18 05:07:26;;;;;;;12.47;7.92;;;;;;;11.01;63.45;100724.73;1769919;81;21308;-86
2023/12/18 05:13:20;;;;;;;12.30;7.62;;;;;;;11.11;63.01;100723.19;1844388;76;28102;-89
2023/12/18 05:16:26;;;;;;;9.23;6.10;;;;;;;11.21;62.52;100723.88;1785242;80;21470;-90
2023/12/18 05:19:33;;;;;;;8.70;6.28;;;;;;;11.28;62.61;100726.78;1785355;79;21840;-87
2023/12/18 05:22:39;;;;;;;10.98;7.37;;;;;;;11.50;61.60;100729.69;1785703;79;21260;-90
2023/12/18 05:25:45;;;;;;;9.18;7.00;;;;;;;11.19;62.19;100721.80;1790072;80;21259;-87
2023/12/18 05:28:50;;;;;;;11.05;6.60;;;;;;;10.99;63.35;100719.40;1785683;79;21771;-87
2023/12/18 05:31:55;;;;;;;10.98;6.50;;;;;;;11.45;62.02;100721.66;1785732;80;21381;-89
2023/12/18 05:35:03;;;;;;;10.18;6.50;;;;;;;11.13;62.57;100719.24;1785774;80;21149;-86
2023/12/18 05:38:08;;;;;;;9.55;6.30;;;;;;;11.35;62.20;100729.19;1784967;79;21288;-91
2023/12/18 05:41:06;;;;;;;13.25;6.75;;;;;;;10.94;63.32;100719.05;1785765;80;21261;-91
2023/12/18 05:44:00;;;;;;;10.75;6.95;;;;;;;11.26;62.35;100721.48;1790967;78;21291;-91
2023/12/18 05:47:05;;;;;;;9.98;6.25;;;;;;;11.31;61.87;100727.30;1785484;80;21256;-91
2023/12/18 05:50:13;;;;;;;8.50;6.22;;;;;;;11.21;62.43;100719.26;1784760;80;21256;-90
2023/12/18 05:53:20;;;;;;;7.55;5.67;;;;;;;11.10;62.79;100713.24;1785102;79;21275;-91
2023/12/18 05:56:26;;;;;;;8.20;5.90;;;;;;;10.96;63.23;100710.18;1783990;80;21948;-90
2023/12/18 05:59:33;;;;;;;9.30;6.12;;;;;;;10.83;63.97;100714.43;1748785;82;21192;-86
2023/12/18 06:02:39;;;;;;;9.15;6.62;;;;;;;11.04;63.76;100716.67;1748211;82;21326;-85
2023/12/18 06:05:46;;;;;;;9.45;6.12;;;;;;;10.90;63.90;100711.34;1755454;80;21255;-86
2023/12/18 06:08:53;;;;;;;10.82;6.72;;;;;;;11.03;63.66;100709.48;1722494;81;21400;-91
2023/12/18 06:11:59;;;;;;;10.15;6.50;;;;;;;11.26;62.79;100712.75;1747182;80;21956;-90
2023/12/18 06:15:06;;;;;;;9.65;6.53;;;;;;;11.43;62.24;100715.47;1759727;81;21343;-90
2023/12/18 06:18:13;;;;;;;9.88;7.15;;;;;;;11.63;61.39;100720.10;1768756;81;21304;-90
2023/12/18 06:21:20;;;;;;;10.95;7.20;;;;;;;11.75;61.08;100713.21;1768660;81;21319;-91
2023/12/18 06:24:26;;;;;;;9.50;7.10;;;;;;;11.58;61.37;100718.40;1767923;81;21909;-91
2023/12/18 06:27:34;;;;;;;11.18;7.53;;;;;;;11.40;62.35;100708.98;1763510;81;21709;-91
2023/12/18 06:30:42;;;;;;;9.20;6.80;;;;;;;11.44;61.87;100715.33;1763400;81;21358;-91
2023/12/18 06:33:49;;;;;;;10.13;7.35;;;;;;;11.35;62.18;100719.09;1754525;81;21867;-91
2023/12/18 06:36:57;;;;;;;9.95;7.12;;;;;;;11.47;61.93;100710.84;1739083;81;21267;-87
2023/12/18 06:40:03;;;;;;;11.33;7.95;;;;;;;11.88;60.77;100709.45;1733776;81;21846;-91
2023/12/18 06:43:10;;;;;;;9.63;7.17;;;;;;;11.90;60.41;100704.67;1748114;81;21276;-91
2023/12/18 06:46:17;;;;;;;9.50;7.00;;;;;;;11.56;61.16;100712.22;1739277;81;21252;-87
2023/12/18 06:49:25;;;;;;;10.18;7.20;;;;;;;11.52;61.59;100713.92;1743937;81;21300;-90
2023/12/18 06:52:31;;;;;;;9.93;7.17;;;;;;;11.34;62.34;100714.64;1755457;81;21320;-87
2023/12/18 06:55:39;;;;;;;10.68;7.22;;;;;;;11.37;62.54;100701.11;1765490;81;21256;-89
2023/12/18 06:58:46;;;;;;;11.33;8.00;;;;;;;11.29;62.60;100701.95;1763984;81;21132;-90
2023/12/18 07:01:53;;;;;;;9.35;7.15;;;;;;;11.03;63.44;100698.54;1699537;84;21284;-90
2023/12/18 07:05:19;;;;;;;11.12;7.15;;;;;;;11.15;63.40;100695.31;1757856;81;21308;-91
2023/12/18 07:08:16;;;;;;;9.33;7.05;;;;;;;10.89;64.02;100700.91;1753429;79;21582;-87
2023/12/18 07:11:23;;;;;;;14.28;7.55;;;;;;;10.94;63.83;100701.78;1764819;81;21288;-87
2023/12/18 07:14:30;;;;;;;8.90;6.75;;;;;;;10.91;64.32;100690.64;1764863;79;21840;-87
2023/12/18 07:17:40;;;;;;;11.80;7.65;;;;;;;11.10;63.90;100684.50;1775331;80;21405;-87
2023/12/18 07:20:49;;;;;;;10.93;7.80;;;;;;;11.23;63.33;100679.38;1751074;82;21310;-87
2023/12/18 07:23:56;;;;;;;9.50;7.40;;;;;;;11.00;64.13;100681.41;1751146;80;21334;-88
2023/12/18 07:27:03;;;;;;;12.25;7.55;;;;;;;10.99;64.01;100678.34;1747340;80;21302;-87
2023/12/18 07:30:12;;;;;;;12.93;6.92;;;;;;;11.19;63.37;100673.89;1774194;80;21854;-87
2023/12/18 07:33:21;;;;;;;9.18;7.30;;;;;;;11.18;63.49;100672.19;1751349;80;21990;-87
2023/12/18 07:36:35;;;;;;;8.93;7.42;;;;;;;11.09;63.66;100678.69;1781216;80;21169;-87
2023/12/18 07:39:41;;;;;;;9.60;7.92;;;;;;;11.18;63.72;100670.82;1775184;80;21314;-87
2023/12/18 07:42:47;;;;;;;9.60;7.65;;;;;;;11.25;63.11;100671.34;1769500;80;21323;-87
2023/12/18 07:45:54;;;;;;;9.90;7.53;;;;;;;10.98;64.49;100675.27;1781567;80;21276;-87
2023/12/18 07:49:02;;;;;;;10.80;7.97;;;;;;;11.19;64.15;100673.89;1783782;80;21311;-88
2023/12/18 07:52:10;;;;;;;12.05;8.05;;;;;;;11.02;64.23;100674.94;1784879;80;21272;-87
2023/12/18 07:55:17;;;;;;;14.73;7.33;;;;;;;10.94;64.50;100667.05;1783243;80;21302;-87
2023/12/18 07:58:26;;;;;;;11.15;8.30;;;;;;;11.22;63.93;100653.02;1784230;80;21322;-88
2023/12/18 08:01:34;;;;;;;13.22;8.73;;;;;;;11.08;63.88;100649.61;1784449;80;21271;-88
2023/12/18 08:04:40;;;;;;;13.20;9.33;;;;;;;10.83;64.86;100645.50;1783082;80;21294;-88
2023/12/18 08:07:47;;;;;;;11.55;8.93;;;;;;;10.83;65.34;100638.66;1784816;80;21302;-89
2023/12/18 08:10:57;;;;;;;11.78;9.40;;;;;;;11.00;64.93;100633.52;1715880;83;21277;-88
2023/12/18 08:14:04;;;;;;;12.33;9.10;;;;;;;10.79;65.52;100634.55;1732209;82;21354;-88
2023/12/18 08:17:03;;;;;;;12.00;8.50;;;;;;;11.13;64.81;100626.68;1661847;86;21316;-87
2023/12/18 08:19:57;;;;;;;14.83;9.20;;;;;;;11.13;64.86;100619.31;1688211;84;21342;-88
2023/12/18 08:23:05;;;;;;;12.30;9.35;;;;;;;11.28;64.56;100611.25;1709373;84;21370;-88
2023/12/18 08:26:17;;;;;;;13.05;9.28;;;;;;;11.52;63.78;100607.60;1710201;84;21809;-89
2023/12/18 08:29:26;;;;;;;12.33;9.25;;;;;;;11.69;63.40;100605.16;1702646;82;21209;-88
2023/12/18 08:32:35;;;;;;;14.78;9.88;;;;;;;11.75;63.26;100605.81;1704330;84;21307;-88
2023/12/18 08:35:45;;;;;;;11.55;8.75;;;;;;;11.72;63.15;100605.34;1673136;85;21350;-89
2023/12/18 08:38:54;;;;;;;10.80;8.20;;;;;;;11.64;63.30;100603.98;1645590;86;21253;-90
2023/12/18 08:42:06;;;;;;;13.62;9.88;;;;;;;11.67;63.22;100600.91;1685723;85;21365;-88
2023/12/18 08:45:17;;;;;;;15.50;10.48;;;;;;;11.47;63.92;100599.91;1680253;83;21227;-88
2023/12/18 08:48:29;;;;;;;13.13;9.65;;;;;;;11.56;63.22;100594.41;1687209;85;21256;-88
2023/12/18 08:51:47;;;;;;;13.03;9.93;;;;;;;12.01;62.22;100594.62;1683601;83;21741;-88
2023/12/18 08:55:01;;;;;;;16.60;10.28;;;;;;;12.23;61.71;100594.34;1680197;85;21408;-89
2023/12/18 08:58:25;;;;;;;17.07;10.00;;;;;;;12.27;61.28;100594.81;1684361;85;21883;-89
2023/12/18 09:01:37;;;;;;;12.63;9.60;;;;;;;12.18;61.52;100594.52;1686776;85;21323;-89
2023/12/18 09:04:54;;;;;;;16.95;10.48;;;;;;;12.15;61.27;100590.79;1681264;85;21209;-89
2023/12/18 09:08:15;;;;;;;15.45;9.88;;;;;;;12.24;61.15;100591.08;1684593;83;21414;-89
2023/12/18 09:11:26;;;;;;;13.93;9.18;;;;;;;11.93;61.85;100594.65;1683648;85;21174;-89
2023/12/18 09:17:55;;;;;;;22.87;9.63;;;;;;;11.42;63.65;100587.26;1679555;83;21304;-89
2023/12/18 09:21:01;;;;;;;16.48;9.48;;;;;;;11.50;63.52;100581.77;1711024;83;21280;-88
2023/12/18 09:24:17;;;;;;;14.65;10.30;;;;;;;11.72;63.19;100579.31;1701824;83;21702;-88
2023/12/18 09:28:19;;;;;;;14.35;8.80;;;;;;;11.91;62.65;100574.80;1711053;78;21885;31
2023/12/18 09:31:29;;;;;;;15.55;9.98;;;;;;;11.22;64.73;100576.36;1655734;84;21089;-89
2023/12/18 09:34:47;;;;;;;13.25;9.38;;;;;;;11.28;64.64;100574.28;1693519;82;21336;-90
2023/12/18 09:38:23;;;;;;;13.62;8.68;;;;;;;11.42;64.55;100575.45;1678487;83;21214;-88
2023/12/18 09:49:27;;;;;;;12.68;9.28;;;;;;;11.05;65.66;100586.98;1733407;81;21215;-88
2023/12/18 09:52:38;;;;;;;12.58;9.15;;;;;;;11.11;65.77;100582.20;1735323;81;21797;-89
2023/12/18 09:55:54;;;;;;;14.13;9.33;;;;;;;11.22;65.34;100576.36;1615153;88;21276;-88
2023/12/18 09:59:10;;;;;;;;;;;;;;;;;;;;;
2023/12/18 10:02:13;;;;;;;15.70;9.18;;;;;;;11.46;64.11;100561.23;1618303;88;21356;-89
2023/12/18 10:05:56;;;;;;;12.40;8.15;;;;;;;11.37;64.13;100558.17;1622331;86;21188;-91
2023/12/18 10:27:19;;;;;;;13.53;8.83;;;;;;;11.44;64.15;100533.69;1614356;86;63786;-85
2023/12/18 10:30:26;;;;;;;17.25;10.40;;;;;;;11.48;64.07;100537.27;1639496;85;21216;-85
2023/12/18 10:33:32;;;;;;;13.25;8.88;;;;;;;11.32;64.68;100551.00;1634224;87;21868;-83
2023/12/18 10:36:39;;;;;;;15.15;10.35;;;;;;;11.45;64.22;100545.83;1641629;85;21190;-83
2023/12/18 10:39:47;;;;;;;15.00;10.15;;;;;;;11.67;63.70;100548.84;1695736;83;21367;-83
2023/12/18 10:42:57;;;;;;;16.15;10.70;;;;;;;11.64;63.69;100547.82;1704839;82;21243;-83
2023/12/18 10:46:03;;;;;;;15.93;10.43;;;;;;;11.67;63.40;100540.11;1711648;82;21849;-83
2023/12/18 10:49:10;;;;;;;13.22;9.75;;;;;;;11.43;63.87;100542.42;1719003;81;21332;-83
2023/12/18 10:52:16;;;;;;;15.78;10.98;;;;;;;11.71;63.47;100530.98;1718612;83;21390;-83
2023/12/18 10:55:23;;;;;;;20.27;11.97;;;;;;;11.78;63.07;100530.11;1707079;82;21377;-84
2023/12/18 10:58:32;;;;;;;14.00;10.68;;;;;;;12.02;62.58;100527.78;1643644;82;28948;-84
2023/12/18 11:01:37;;;;;;;19.35;11.33;;;;;;;12.08;62.27;100523.98;1637031;85;21295;-84
2023/12/18 11:04:44;;;;;;;18.07;11.70;;;;;;;11.96;62.26;100516.70;1644126;87;21295;-84
2023/12/18 11:07:50;;;;;;;16.95;11.75;;;;;;;11.91;62.66;100517.23;1643647;85;21804;-84
2023/12/18 11:10:59;;;;;;;18.23;10.98;;;;;;;11.82;62.83;100518.31;1628788;87;21299;-84
2023/12/18 11:14:25;;;;;;;20.50;11.30;;;;;;;11.60;63.47;100524.03;1643276;85;21438;-84
2023/12/18 11:17:59;;;;;;;18.55;11.88;;;;;;;11.48;64.10;100518.62;1619086;87;21256;-84
2023/12/18 11:21:06;;;;;;;20.30;13.48;;;;;;;11.34;64.56;100514.73;1644959;85;21302;-85
2023/12/18 11:24:12;;;;;;;17.42;12.45;;;;;;;11.59;64.35;100512.73;1617358;87;21331;-84
2023/12/18 11:27:18;;;;;;;18.25;13.03;;;;;;;11.79;63.51;100510.41;1611429;87;21874;-85
2023/12/18 11:30:34;;;;;;;19.95;12.73;;;;;;;11.80;63.29;100508.00;1562594;89;21477;-85
2023/12/18 11:33:40;;;;;;;24.23;13.30;;;;;;;11.90;63.14;100504.58;1633377;87;21292;-84
2023/12/18 11:36:59;;;;;;;28.65;13.38;;;;;;;11.77;63.64;100497.41;1643265;85;22143;-85
2023/12/18 11:40:06;;;;;;;20.50;13.55;;;;;;;11.80;63.62;100496.19;1629591;87;21352;-85
2023/12/18 11:43:12;;;;;;;18.95;12.98;;;;;;;11.62;64.11;100497.81;1629471;87;21199;-85
2023/12/18 11:46:21;;;;;;;23.80;11.68;;;;;;;11.56;64.23;100492.53;1628693;87;21256;-85
2023/12/18 11:49:29;;;;;;;31.77;14.98;;;;;;;11.87;63.44;100498.59;1644675;86;21315;-85
2023/12/18 11:52:37;;;;;;;22.62;14.70;;;;;;;11.61;64.08;100496.96;1625231;86;21212;-85
2023/12/18 11:55:47;;;;;;;26.77;16.27;;;;;;;11.52;64.74;100493.40;1603855;87;21196;-85
2023/12/18 11:58:56;;;;;;;23.67;14.53;;;;;;;11.87;63.71;100488.48;1632408;86;21439;-85
2023/12/18 12:02:03;;;;;;;23.30;15.72;;;;;;;11.77;63.78;100490.56;1602845;88;21365;-85
2023/12/18 12:05:11;;;;;;;30.80;17.87;;;;;;;11.73;63.79;100494.17;1583857;89;21396;-84
2023/12/18 12:08:18;;;;;;;25.60;16.55;;;;;;;11.74;63.96;100492.28;1639943;87;21491;-85
2023/12/18 12:11:23;;;;;;;25.57;15.95;;;;;;;11.66;64.11;100489.58;1621658;87;21335;-85
2023/12/18 12:14:28;;;;;;;21.50;14.00;;;;;;;11.50;64.56;100477.67;1630823;87;21335;-85
2023/12/18 12:17:34;;;;;;;27.95;16.25;;;;;;;11.72;64.31;100481.52;1616614;87;21239;-85
2023/12/18 12:20:40;;;;;;;22.60;15.25;;;;;;;11.56;64.42;100492.53;1633067;87;22452;-85
2023/12/18 12:23:50;;;;;;;26.12;15.88;;;;;;;11.83;64.17;100487.13;1642640;87;21378;-85
2023/12/18 12:26:56;;;;;;;25.90;16.40;;;;;;;11.91;63.65;100493.09;1629571;86;22517;-84
2023/12/18 12:30:01;;;;;;;30.88;18.17;;;;;;;11.50;64.73;100477.67;1634559;87;21247;-84
2023/12/18 12:33:08;;;;;;;25.88;16.17;;;;;;;11.56;64.73;100488.42;1615181;87;21650;-85
2023/12/18 12:36:14;;;;;;;25.05;16.40;;;;;;;11.37;65.23;100489.70;1632222;87;21928;-85
2023/12/18 12:39:21;;;;;;;30.15;16.70;;;;;;;11.17;66.49;100495.27;1635865;87;21970;-85
2023/12/18 12:42:29;;;;;;;30.77;17.85;;;;;;;11.38;66.09;100498.25;1623959;87;21331;-85
2023/12/18 12:45:35;;;;;;;30.17;18.32;;;;;;;11.44;65.60;100492.09;1624034;87;21395;-85
2023/12/18 12:48:41;;;;;;;29.50;18.52;;;;;;;11.45;65.72;100496.53;1591306;87;21676;-84
2023/12/18 12:51:47;;;;;;;30.75;18.45;;;;;;;11.08;66.53;100492.20;1633208;87;21344;-84
2023/12/18 12:54:53;;;;;;;25.72;15.72;;;;;;;11.41;65.70;100484.22;1636227;87;21335;-84
2023/12/18 12:57:59;;;;;;;32.17;18.40;;;;;;;11.35;65.67;100486.30;1625109;87;22088;-85
2023/12/18 13:01:06;;;;;;;32.60;18.45;;;;;;;11.31;65.62;100487.69;1634966;87;21388;-85
2023/12/18 13:04:12;;;;;;;28.50;18.57;;;;;;;11.40;65.29;100490.73;1628803;87;21917;-84
2023/12/18 13:07:19;;;;;;;32.50;19.07;;;;;;;11.44;64.81;100497.56;1625379;87;21215;-85
2023/12/18 13:10:32;;;;;;;31.60;18.02;;;;;;;11.57;65.10;100498.34;1622347;87;21232;-85
2023/12/18 13:13:34;;;;;;;29.33;18.20;;;;;;;11.47;65.07;100504.04;1620733;86;21395;-85
2023/12/18 13:16:43;;;;;;;34.95;21.00;;;;;;;11.35;65.10;100510.95;1631494;87;21579;-84
2023/12/18 13:19:49;;;;;;;30.92;19.42;;;;;;;11.75;64.09;100506.31;1632428;87;21342;-83
2023/12/18 13:22:57;;;;;;;33.15;20.12;;;;;;;11.74;64.11;100497.24;1623657;87;21225;-84
2023/12/18 13:26:02;;;;;;;34.88;19.77;;;;;;;11.93;63.62;100500.08;1626235;87;21390;-84
2023/12/18 13:29:09;;;;;;;28.67;18.27;;;;;;;11.97;63.47;100505.55;1634564;87;21288;-84
2023/12/18 13:32:13;;;;;;;32.05;19.42;;;;;;;11.78;63.78;100505.97;1622774;88;22210;-84
2023/12/18 13:35:22;;;;;;;39.33;21.50;;;;;;;12.14;62.78;100513.16;1593590;88;21349;-84
2023/12/18 13:38:28;;;;;;;35.45;20.95;;;;;;;12.28;62.32;100519.75;1606046;88;21257;-84
2023/12/18 13:41:39;;;;;;;31.75;18.85;;;;;;;11.99;63.24;100522.65;1607866;88;21289;-84
2023/12/18 13:44:45;;;;;;;30.60;19.60;;;;;;;12.16;62.91;100533.02;1600013;88;21277;-85
2023/12/18 13:47:51;;;;;;;31.97;20.50;;;;;;;12.05;63.16;100530.70;1605395;87;21254;-84
2023/12/18 13:50:56;;;;;;;27.50;16.95;;;;;;;11.10;66.21;100533.94;1612923;87;21380;-84
2023/12/18 13:54:02;;;;;;;31.30;19.62;;;;;;;11.09;66.57;100528.13;1607366;87;21205;-84
2023/12/18 13:57:12;;;;;;;33.35;19.05;;;;;;;11.28;66.00;100528.25;1589828;90;21312;-83
2023/12/18 14:00:20;;;;;;;33.92;19.20;;;;;;;11.04;66.60;100526.42;1584487;89;21365;-83
2023/12/18 14:03:25;;;;;;;32.35;19.12;;;;;;;11.17;66.17;100513.91;1604759;89;21371;-84
2023/12/18 14:06:32;;;;;;;29.40;18.57;;;;;;;11.34;65.85;100517.47;1575797;90;21658;-83
2023/12/18 14:09:38;;;;;;;27.85;18.15;;;;;;;11.17;66.24;100518.02;1588514;89;21347;-84
2023/12/18 14:12:44;;;;;;;33.33;18.82;;;;;;;11.14;66.69;100516.13;1584402;90;21343;-83
2023/12/18 14:15:49;;;;;;;30.37;17.77;;;;;;;11.32;66.08;100519.51;1590399;89;21252;-84
2023/12/18 14:18:55;;;;;;;34.25;20.68;;;;;;;11.34;66.25;100524.31;1584757;90;21327;-84
2023/12/18 14:22:01;;;;;;;29.00;19.55;;;;;;;11.24;66.65;100525.00;1591225;90;21355;-84
2023/12/18 14:25:08;;;;;;;29.48;18.48;;;;;;;11.20;66.81;100528.63;1585839;90;21257;-83
2023/12/18 14:28:13;;;;;;;30.02;17.65;;;;;;;11.03;67.21;100532.94;1577706;90;21201;-84
2023/12/18 14:31:19;;;;;;;28.92;18.05;;;;;;;11.10;67.51;100533.42;1579915;89;21240;-84
2023/12/18 14:34:24;;;;;;;31.87;19.37;;;;;;;10.97;67.44;100532.61;1585132;89;21398;-84
2023/12/18 14:37:30;;;;;;;28.73;17.75;;;;;;;11.16;67.20;100525.05;1597856;89;21920;-83
2023/12/18 14:40:35;;;;;;;29.57;18.27;;;;;;;11.57;65.68;100523.52;1597134;89;21396;-84
2023/12/18 14:43:41;;;;;;;29.92;18.45;;;;;;;11.41;65.69;100525.30;1594198;90;21212;-83
2023/12/18 14:46:47;;;;;;;30.60;18.90;;;;;;;11.46;65.68;100521.52;1594696;90;21338;-83
2023/12/18 14:49:51;;;;;;;28.47;17.45;;;;;;;11.34;65.73;100522.06;1593385;89;21956;-84
2023/12/18 14:52:58;;;;;;;34.43;19.85;;;;;;;11.20;66.62;100526.41;1598414;89;21897;-83
2023/12/18 14:56:04;;;;;;;29.75;18.82;;;;;;;11.22;66.68;100524.33;1597242;89;21359;-84
2023/12/18 14:59:12;;;;;;;29.32;15.93;;;;;;;11.09;67.19;100522.66;1594513;90;21243;-84